Home > Products > Valid Products > TAF

000
FTUS42 KJAX 041720
TAFJAX
TAF
KJAX 041720Z 0418/0518 21013G19KT P6SM SCT035 BKN250
     FM050000 19006KT P6SM SCT035 SCT250
     FM050700 21004KT 1SM BR BKN005
     FM051400 21010KT P6SM SCT008 SCT250=



000
FTUS42 KJAX 041720
TAFJAX
TAF
KJAX 041720Z 0418/0518 21013G19KT P6SM SCT035 BKN250
     FM050000 19006KT P6SM SCT035 SCT250
     FM050700 21004KT 1SM BR BKN005
     FM051400 21010KT P6SM SCT008 SCT250=



000
FTUS42 KJAX 041720
TAFSSI
TAF
KSSI 041720Z 0418/0518 18009KT P6SM SCT030 BKN035
     FM050100 19006KT P6SM SCT030 SCT250
     FM050700 20004KT 2SM BR BKN009
     FM051400 21007KT P6SM SCT015 SCT250=



000
FTUS42 KJAX 041720
TAFGNV
TAF
KGNV 041720Z 0418/0518 20011G18KT P6SM SCT030 BKN045
     FM050000 21004KT P6SM SCT040 SCT250
     FM050600 20003KT 1SM BR BKN005 BKN030
     FM051500 21010KT P6SM SCT005 BKN035=



000
FTUS42 KJAX 041720
TAFCRG
TAF
KCRG 041720Z 0418/0518 21012G19KT P6SM SCT035 BKN250
     FM050000 19007KT P6SM SCT035 SCT250
     FM050800 21004KT 2SM BR BKN010
     FM051400 21010KT P6SM SCT015 SCT250=



000
FTUS42 KJAX 041720
TAFCRG
TAF
KCRG 041720Z 0418/0518 21012G19KT P6SM SCT035 BKN250
     FM050000 19007KT P6SM SCT035 SCT250
     FM050800 21004KT 2SM BR BKN010
     FM051400 21010KT P6SM SCT015 SCT250=



000
FTUS42 KJAX 041720
TAFSSI
TAF
KSSI 041720Z 0418/0518 18009KT P6SM SCT030 BKN035
     FM050100 19006KT P6SM SCT030 SCT250
     FM050700 20004KT 2SM BR BKN009
     FM051400 21007KT P6SM SCT015 SCT250=



000
FTUS42 KJAX 041720
TAFGNV
TAF
KGNV 041720Z 0418/0518 20011G18KT P6SM SCT030 BKN045
     FM050000 21004KT P6SM SCT040 SCT250
     FM050600 20003KT 1SM BR BKN005 BKN030
     FM051500 21010KT P6SM SCT005 BKN035=



000
FTUS42 KJAX 041526 AAC
TAFJAX
TAF AMD
KJAX 041526Z 0415/0512 21012G18KT P6SM SCT030 SCT250
      TEMPO 0415/0418 BKN025
     FM050000 19006KT P6SM SCT250
     FM050800 20003KT 3SM BR SCT005=



000
FTUS42 KJAX 041432 AAB
TAFCRG
TAF AMD
KCRG 041432Z 0415/0512 20010KT P6SM FEW005 SCT040 SCT250
     FM041600 21012G18KT P6SM SCT250
     FM050000 19007KT P6SM SCT250
     FM050800 20003KT 3SM BR SCT010=



000
FTUS42 KJAX 041331 AAA
TAFCRG
TAF AMD
KCRG 041331Z 0414/0512 20009KT P6SM FEW040 SCT250
      TEMPO 0414/0415 BKN005
     FM041600 21012G18KT P6SM SCT250
     FM050000 19007KT P6SM SCT250
     FM050800 20003KT 3SM BR SCT010=



000
FTUS42 KJAX 041331 AAA
TAFCRG
TAF AMD
KCRG 041331Z 0414/0512 20009KT P6SM FEW040 SCT250
      TEMPO 0414/0415 BKN005
     FM041600 21012G18KT P6SM SCT250
     FM050000 19007KT P6SM SCT250
     FM050800 20003KT 3SM BR SCT010=



000
FTUS42 KJAX 041121
TAFCRG
TAF
KCRG 041121Z 0412/0512 19006KT P6SM FEW007 SCT200
      TEMPO 0412/0413 3SM BR
     FM041400 20009KT P6SM SCT025
     FM041600 21012G18KT P6SM SCT250
     FM050000 19007KT P6SM SCT250
     FM050800 20003KT 3SM BR SCT010=



000
FTUS42 KJAX 041121
TAFJAX
TAF
KJAX 041121Z 0412/0512 18006KT P6SM FEW007
      TEMPO 0412/0413 3SM BR
     FM041400 20009KT P6SM FEW025
     FM041600 21012G18KT P6SM SCT250
     FM050000 19006KT P6SM SCT250
     FM050800 20003KT 3SM BR SCT005=



000
FTUS42 KJAX 041121
TAFJAX
TAF
KJAX 041121Z 0412/0512 18006KT P6SM FEW007
      TEMPO 0412/0413 3SM BR
     FM041400 20009KT P6SM FEW025
     FM041600 21012G18KT P6SM SCT250
     FM050000 19006KT P6SM SCT250
     FM050800 20003KT 3SM BR SCT005=



000
FTUS42 KJAX 041121
TAFCRG
TAF
KCRG 041121Z 0412/0512 19006KT P6SM FEW007 SCT200
      TEMPO 0412/0413 3SM BR
     FM041400 20009KT P6SM SCT025
     FM041600 21012G18KT P6SM SCT250
     FM050000 19007KT P6SM SCT250
     FM050800 20003KT 3SM BR SCT010=



000
FTUS42 KJAX 041121
TAFSSI
TAF
KSSI 041121Z 0412/0512 18004KT 4SM BR SCT005
      TEMPO 0412/0414 1SM BR BKN002
     FM041500 19008KT P6SM SCT020
     FM041700 20011KT P6SM SCT250
     FM050100 19006KT P6SM SCT250
     FM050800 20004KT 4SM BR SCT010=



000
FTUS42 KJAX 041121
TAFGNV
TAF
KGNV 041121Z 0412/0512 17004KT 4SM BR FEW015 SCT200
      TEMPO 0412/0413 1/4SM FG BKN010
     FM041400 19005KT P6SM SCT025
     FM041600 20011KT P6SM SCT250
     FM050000 21004KT P6SM SCT250
     FM050800 VRB03KT 3SM BR SCT005=



000
FTUS42 KJAX 041121
TAFSSI
TAF
KSSI 041121Z 0412/0512 18004KT 4SM BR SCT005
      TEMPO 0412/0414 1SM BR BKN002
     FM041500 19008KT P6SM SCT020
     FM041700 20011KT P6SM SCT250
     FM050100 19006KT P6SM SCT250
     FM050800 20004KT 4SM BR SCT010=



000
FTUS42 KJAX 041121
TAFGNV
TAF
KGNV 041121Z 0412/0512 17004KT 4SM BR FEW015 SCT200
      TEMPO 0412/0413 1/4SM FG BKN010
     FM041400 19005KT P6SM SCT025
     FM041600 20011KT P6SM SCT250
     FM050000 21004KT P6SM SCT250
     FM050800 VRB03KT 3SM BR SCT005=



000
FTUS42 KJAX 041050 AAC
TAFGNV
TAF AMD
KGNV 041050Z 0411/0506 17004KT 4SM BR FEW015 SCT200
      TEMPO 0411/0413 1/2SM FG BKN010
     FM041400 19005KT P6SM SCT025
     FM041600 20011KT P6SM SCT250
     FM050000 21004KT P6SM SCT250=



000
FTUS42 KJAX 040948 AAB
TAFSSI
TAF AMD
KSSI 040948Z 0410/0506 18004KT P6SM SCT005
      TEMPO 0411/0414 3SM BR BKN002
     FM041500 19008KT P6SM SCT020
     FM041700 20011KT P6SM SCT250
     FM050100 19006KT P6SM SCT250=



000
FTUS42 KJAX 040948 AAB
TAFSSI
TAF AMD
KSSI 040948Z 0410/0506 18004KT P6SM SCT005
      TEMPO 0411/0414 3SM BR BKN002
     FM041500 19008KT P6SM SCT020
     FM041700 20011KT P6SM SCT250
     FM050100 19006KT P6SM SCT250=



000
FTUS42 KJAX 040946 AAB
TAFGNV
TAF AMD
KGNV 040946Z 0410/0506 17004KT P6SM SCT200
      TEMPO 0411/0413 3SM BR
     FM041600 20011KT P6SM SCT250
     FM050000 21004KT P6SM SCT250=



000
FTUS42 KJAX 040945 AAB
TAFCRG
TAF AMD
KCRG 040945Z 0410/0506 17006KT P6SM SCT200
      TEMPO 0411/0413 3SM BR
     FM041400 20009KT P6SM SCT025
     FM041600 21012G18KT P6SM SCT250
     FM050000 19007KT P6SM SCT250=



000
FTUS42 KJAX 040945 AAC
TAFJAX
TAF AMD
KJAX 040945Z 0410/0506 18006KT P6SM SCT200
      TEMPO 0411/0413 3SM BR SCT010
     FM041400 20009KT P6SM SCT025
     FM041600 21012KT P6SM SCT250
     FM050000 19006KT P6SM SCT250=



000
FTUS42 KJAX 040824 AAA
TAFCRG
TAF AMD
KCRG 040824Z 0408/0506 17006KT P6SM SCT200
     FM041000 19005KT 5SM BR FEW010 SCT200
      TEMPO 0410/0413 2SM BR BKN007
     FM041400 20009KT P6SM BKN025
     FM041600 21012G18KT P6SM SCT250
     FM050000 19007KT P6SM SCT250=



000
FTUS42 KJAX 040824 AAB
TAFJAX
TAF AMD
KJAX 040824Z 0408/0506 18006KT P6SM SCT200
     FM041000 19005KT 5SM BR FEW010 SCT200
      TEMPO 0410/0413 2SM BR BKN007
     FM041400 20009KT P6SM BKN025
     FM041600 21012KT P6SM SCT250
     FM050000 19006KT P6SM SCT250=



000
FTUS42 KJAX 040824 AAB
TAFJAX
TAF AMD
KJAX 040824Z 0408/0506 18006KT P6SM SCT200
     FM041000 19005KT 5SM BR FEW010 SCT200
      TEMPO 0410/0413 2SM BR BKN007
     FM041400 20009KT P6SM BKN025
     FM041600 21012KT P6SM SCT250
     FM050000 19006KT P6SM SCT250=



000
FTUS42 KJAX 040822 AAA
TAFGNV
TAF AMD
KGNV 040822Z 0408/0506 17004KT P6SM FEW005 SCT080
      TEMPO 0410/0412 2SM BR BKN002
     FM041400 18006KT P6SM BKN020
     FM041600 20011KT P6SM SCT250
     FM050000 21004KT P6SM SCT250=



000
FTUS42 KJAX 040822 AAA
TAFGNV
TAF AMD
KGNV 040822Z 0408/0506 17004KT P6SM FEW005 SCT080
      TEMPO 0410/0412 2SM BR BKN002
     FM041400 18006KT P6SM BKN020
     FM041600 20011KT P6SM SCT250
     FM050000 21004KT P6SM SCT250=



000
FTUS42 KJAX 040822 CCA
TAFGNV
TAF COR
KGNV 040822Z 0408/0506 17004KT P6SM FEW005 SCT080
      TEMPO 0410/0413 2SM BR BKN002
     FM041400 18006KT P6SM BKN020
     FM041600 20011KT P6SM SCT250
     FM050000 21004KT P6SM SCT250=



000
FTUS42 KJAX 040821 AAA
TAFSSI
TAF AMD
KSSI 040821Z 0408/0506 18007KT 5SM BR SCT003
      TEMPO 0408/0412 2SM BR BKN002
     FM041300 19005KT P6SM BKN010
     FM041600 20011KT P6SM SCT250
     FM050100 19006KT P6SM SCT250=



000
FTUS42 KJAX 040821 AAA
TAFSSI
TAF AMD
KSSI 040821Z 0408/0506 18007KT 5SM BR SCT003
      TEMPO 0408/0412 2SM BR BKN002
     FM041300 19005KT P6SM BKN010
     FM041600 20011KT P6SM SCT250
     FM050100 19006KT P6SM SCT250=



000
FTUS42 KJAX 040522
TAFGNV
TAF
KGNV 040522Z 0406/0506 14004KT P6SM SCT080
     FM040900 VRB03KT 4SM BR SCT005
      TEMPO 0409/0412 1SM BR OVC002
     FM041400 18006KT P6SM BKN020
     FM041600 20011KT P6SM SCT250
     FM050000 21004KT P6SM SCT250=



000
FTUS42 KJAX 040522
TAFJAX
TAF
KJAX 040522Z 0406/0506 18004KT P6SM SCT200
     FM040900 19005KT 5SM BR FEW010 SCT200
      TEMPO 0410/0413 2SM BR BKN007
     FM041400 20009KT P6SM BKN025
     FM041600 21012KT P6SM SCT250
     FM050000 19006KT P6SM SCT250=



000
FTUS42 KJAX 040522
TAFCRG
TAF
KCRG 040522Z 0406/0506 17006KT P6SM SCT100
     FM040900 19005KT 5SM BR FEW010 SCT200
      TEMPO 0410/0413 2SM BR BKN007
     FM041400 20009KT P6SM BKN025
     FM041600 21012G18KT P6SM SCT250
     FM050000 19007KT P6SM SCT250=



000
FTUS42 KJAX 040522
TAFSSI
TAF
KSSI 040522Z 0406/0506 17011KT P6SM SCT003
     FM040800 18007KT 5SM BR SCT003
      TEMPO 0409/0412 2SM BR BKN002
     FM041300 19005KT P6SM BKN010
     FM041600 20011KT P6SM SCT250
     FM050100 19006KT P6SM SCT250=



000
FTUS42 KJAX 040351 AAC
TAFSSI
TAF AMD
KSSI 040351Z 0404/0424 17007KT P6SM SCT002
      TEMPO 0405/0408 3SM BR BKN002
     FM041200 16005KT 6SM BR BKN010
     FM041500 18010G16KT P6SM FEW250=



000
FTUS42 KJAX 040253 AAB
TAFSSI
TAF AMD
KSSI 040253Z 0403/0424 17005KT 2SM BR OVC002
      TEMPO 0403/0407 1/2SM FG VV001
     FM040700 20007KT 3SM BR SCT002 BKN008
     FM041200 16005KT 6SM BR BKN010
     FM041500 18010G16KT P6SM FEW250=



000
FTUS42 KJAX 040026 AAA
TAFSSI
TAF AMD
KSSI 040026Z 0400/0424 08004KT P6SM FEW010 SCT060
     FM040400 16005KT 6SM BR BKN010
     FM040700 17005KT 1/4SM FG OVC002
     FM041400 20007KT 4SM BR SCT002 BKN008
     FM041600 18010G16KT P6SM FEW250=



000
FTUS42 KJAX 040026 AAA
TAFSSI
TAF AMD
KSSI 040026Z 0400/0424 08004KT P6SM FEW010 SCT060
     FM040400 16005KT 6SM BR BKN010
     FM040700 17005KT 1/4SM FG OVC002
     FM041400 20007KT 4SM BR SCT002 BKN008
     FM041600 18010G16KT P6SM FEW250=



000
FTUS42 KJAX 032320
TAFGNV
TAF
KGNV 032320Z 0400/0424 17008KT P6SM FEW045 SCT070
     FM040600 17004KT P6SM BKN010
     FM040800 17004KT 3SM BR OVC004
      TEMPO 0409/0412 1 1/2SM BR OVC002
     FM041400 20010KT P6SM BKN020
     FM041600 20011G16KT P6SM SCT250=



000
FTUS42 KJAX 032320
TAFSSI
TAF
KSSI 032320Z 0400/0424 11006KT P6SM OVC070
     FM040100 16005KT 5SM BR BKN010
     FM040300 17005KT 1/4SM FG OVC002
     FM041400 20007KT 4SM BR SCT002 BKN008
     FM041600 18010G16KT P6SM FEW250=



000
FTUS42 KJAX 032320
TAFJAX
TAF
KJAX 032320Z 0400/0424 14009KT P6SM FEW045 BKN060 OVC250
     FM040600 17004KT P6SM SCT010 BKN045
     FM040800 17004KT 3SM BR SCT004 BKN008
      TEMPO 0409/0413 1 1/2SM BR BKN004
     FM041400 20010KT P6SM BKN025
     FM041600 20012G16KT P6SM BKN250=



000
FTUS42 KJAX 032320
TAFCRG
TAF
KCRG 032320Z 0400/0424 12007KT P6SM FEW045 BKN060 OVC250
     FM040600 17004KT P6SM BKN010
     FM040900 17004KT 1/2SM FG OVC002
     FM041400 20010KT P6SM BKN020
     FM041600 20012G16KT P6SM BKN250=



000
FTUS42 KJAX 031732
TAFGNV
TAF
KGNV 031732Z 0318/0418 17008KT P6SM SKC
     FM040600 17004KT P6SM BKN010
     FM040900 17004KT 3SM BR OVC005
     FM041400 20010KT P6SM BKN020=



000
FTUS42 KJAX 031732
TAFJAX
TAF
KJAX 031732Z 0318/0418 14006KT P6SM SCT030 SCT250
     FM040600 17004KT P6SM BKN010
     FM040900 17004KT 3SM BR OVC002
     FM041400 20010KT P6SM BKN020=



000
FTUS42 KJAX 031732
TAFJAX
TAF
KJAX 031732Z 0318/0418 14006KT P6SM SCT030 SCT250
     FM040600 17004KT P6SM BKN010
     FM040900 17004KT 3SM BR OVC002
     FM041400 20010KT P6SM BKN020=



000
FTUS42 KJAX 031732
TAFGNV
TAF
KGNV 031732Z 0318/0418 17008KT P6SM SKC
     FM040600 17004KT P6SM BKN010
     FM040900 17004KT 3SM BR OVC005
     FM041400 20010KT P6SM BKN020=



000
FTUS42 KJAX 031732
TAFCRG
TAF
KCRG 031732Z 0318/0418 12007KT P6SM SCT025
     FM040600 17004KT P6SM BKN010
     FM040900 17004KT 1/2SM FG OVC002
     FM041400 20010KT P6SM BKN020=



000
FTUS42 KJAX 031732
TAFCRG
TAF
KCRG 031732Z 0318/0418 12007KT P6SM SCT025
     FM040600 17004KT P6SM BKN010
     FM040900 17004KT 1/2SM FG OVC002
     FM041400 20010KT P6SM BKN020=



000
FTUS42 KJAX 031732
TAFSSI
TAF
KSSI 031732Z 0318/0418 12006KT P6SM OVC060
     FM032300 16005KT 6SM BR BKN010
     FM040300 17005KT 1/4SM FG OVC002
     FM041500 20007KT 6SM BR BKN020=



000
FTUS42 KJAX 031732
TAFSSI
TAF
KSSI 031732Z 0318/0418 12006KT P6SM OVC060
     FM032300 16005KT 6SM BR BKN010
     FM040300 17005KT 1/4SM FG OVC002
     FM041500 20007KT 6SM BR BKN020=



000
FTUS42 KJAX 031356 AAD
TAFGNV
TAF AMD
KGNV 031356Z 0314/0412 11004KT 4SM BR OVC005
     FM031500 12007KT P6SM BKN010
     FM031630 14008KT P6SM SCT035
     FM040000 14005KT P6SM SCT035 BKN250
     FM040600 17004KT 3SM BR SCT003=



000
FTUS42 KJAX 031356 AAC
TAFGNV
TAF AMD
KGNV 031356Z 0314/0412 11004KT 4SM BR OVC005
     FM031500 12007KT P6SM BKN010
     FM031530 14008KT P6SM SCT035
     FM040000 14005KT P6SM SCT035 BKN250
     FM040600 17004KT 3SM BR SCT003=



000
FTUS42 KJAX 031356 AAD
TAFGNV
TAF AMD
KGNV 031356Z 0314/0412 11004KT 4SM BR OVC005
     FM031500 12007KT P6SM BKN010
     FM031630 14008KT P6SM SCT035
     FM040000 14005KT P6SM SCT035 BKN250
     FM040600 17004KT 3SM BR SCT003=



000
FTUS42 KJAX 031356 AAC
TAFGNV
TAF AMD
KGNV 031356Z 0314/0412 11004KT 4SM BR OVC005
     FM031500 12007KT P6SM BKN010
     FM031530 14008KT P6SM SCT035
     FM040000 14005KT P6SM SCT035 BKN250
     FM040600 17004KT 3SM BR SCT003=



000
FTUS42 KJAX 031328 AAB
TAFGNV
TAF AMD
KGNV 031328Z 0313/0412 11004KT 2SM BR OVC002
     FM031330 11003KT 4SM BR OVC010
     FM031430 12007KT P6SM BKN030
     FM031530 14008KT P6SM SCT035
     FM040000 14005KT P6SM SCT035 BKN250
     FM040600 17004KT 3SM BR SCT003=



000
FTUS42 KJAX 031328 AAB
TAFGNV
TAF AMD
KGNV 031328Z 0313/0412 11004KT 2SM BR OVC002
     FM031330 11003KT 4SM BR OVC010
     FM031430 12007KT P6SM BKN030
     FM031530 14008KT P6SM SCT035
     FM040000 14005KT P6SM SCT035 BKN250
     FM040600 17004KT 3SM BR SCT003=



000
FTUS42 KJAX 031219 AAA
TAFSSI
TAF AMD
KSSI 031219Z 0312/0412 VRB03KT 6SM BR SCT040
     FM031500 08007KT P6SM BKN060
     FM031800 12006KT P6SM BKN025
     FM040500 17006KT 3SM BR BKN004=



000
FTUS42 KJAX 031219 AAA
TAFSSI
TAF AMD
KSSI 031219Z 0312/0412 VRB03KT 6SM BR SCT040
     FM031500 08007KT P6SM BKN060
     FM031800 12006KT P6SM BKN025
     FM040500 17006KT 3SM BR BKN004=



000
FTUS42 KJAX 031218 AAA
TAFGNV
TAF AMD
KGNV 031218Z 0312/0412 11004KT 1/4SM FG VV002
     FM031430 12007KT 5SM BR BKN015
     FM031530 14008KT P6SM SCT035
     FM040000 14005KT P6SM SCT035 BKN250
     FM040600 17004KT 3SM BR SCT003=



000
FTUS42 KJAX 031218 AAA
TAFGNV
TAF AMD
KGNV 031218Z 0312/0412 11004KT 1/4SM FG VV002
     FM031430 12007KT 5SM BR BKN015
     FM031530 14008KT P6SM SCT035
     FM040000 14005KT P6SM SCT035 BKN250
     FM040600 17004KT 3SM BR SCT003=



000
FTUS42 KJAX 031217 AAA
TAFCRG
TAF AMD
KCRG 031217Z 0312/0412 00000KT 6SM BR BKN060
     FM031500 12005KT P6SM BKN060
     FM031800 14007KT P6SM BKN035
     FM040000 13005KT P6SM SCT035 BKN250
     FM040600 17004KT 4SM BR SCT004=



000
FTUS42 KJAX 031217 AAA
TAFCRG
TAF AMD
KCRG 031217Z 0312/0412 00000KT 6SM BR BKN060
     FM031500 12005KT P6SM BKN060
     FM031800 14007KT P6SM BKN035
     FM040000 13005KT P6SM SCT035 BKN250
     FM040600 17004KT 4SM BR SCT004=



000
FTUS42 KJAX 031216 AAA
TAFJAX
TAF AMD
KJAX 031216Z 0312/0412 00000KT 6SM BR BKN060
     FM031400 14007KT P6SM BKN060
     FM040000 13005KT P6SM SCT035 BKN250
     FM040600 17004KT 4SM BR SCT004=



000
FTUS42 KJAX 031216 AAA
TAFJAX
TAF AMD
KJAX 031216Z 0312/0412 00000KT 6SM BR BKN060
     FM031400 14007KT P6SM BKN060
     FM040000 13005KT P6SM SCT035 BKN250
     FM040600 17004KT 4SM BR SCT004=



000
FTUS42 KJAX 031142
TAFSSI
TAF
KSSI 031142Z 0312/0412 VRB03KT 6SM BR SCT040
      TEMPO 0312/0315 2SM BR BKN004
     FM031500 08007KT P6SM BKN010
     FM031800 12006KT P6SM BKN025
     FM040500 17006KT 3SM BR BKN004=



000
FTUS42 KJAX 031142
TAFJAX
TAF
KJAX 031142Z 0312/0412 00000KT 6SM BR FEW003 SCT030
      TEMPO 0312/0315 1SM BR BKN003
     FM031500 12005KT P6SM BKN015
     FM031700 14007KT P6SM BKN035
     FM040000 13005KT P6SM SCT035 BKN250
     FM040600 17004KT 4SM BR SCT004=



000
FTUS42 KJAX 031142
TAFGNV
TAF
KGNV 031142Z 0312/0412 11004KT 1/2SM FG VV002
     FM031430 12007KT 5SM BR BKN015
     FM031530 14008KT P6SM SCT035
     FM040000 14005KT P6SM SCT035 BKN250
     FM040600 17004KT 3SM BR SCT003=



000
FTUS42 KJAX 031142
TAFSSI
TAF
KSSI 031142Z 0312/0412 VRB03KT 6SM BR SCT040
      TEMPO 0312/0315 2SM BR BKN004
     FM031500 08007KT P6SM BKN010
     FM031800 12006KT P6SM BKN025
     FM040500 17006KT 3SM BR BKN004=



000
FTUS42 KJAX 031142
TAFGNV
TAF
KGNV 031142Z 0312/0412 11004KT 1/2SM FG VV002
     FM031430 12007KT 5SM BR BKN015
     FM031530 14008KT P6SM SCT035
     FM040000 14005KT P6SM SCT035 BKN250
     FM040600 17004KT 3SM BR SCT003=



000
FTUS42 KJAX 031142
TAFCRG
TAF
KCRG 031142Z 0312/0412 00000KT 6SM BR BKN035
      TEMPO 0312/0315 1SM BR BKN003
     FM031500 12005KT P6SM BKN015
     FM031800 14007KT P6SM BKN035
     FM040000 13005KT P6SM SCT035 BKN250
     FM040600 17004KT 4SM BR SCT004=



000
FTUS42 KJAX 031142
TAFJAX
TAF
KJAX 031142Z 0312/0412 00000KT 6SM BR FEW003 SCT030
      TEMPO 0312/0315 1SM BR BKN003
     FM031500 12005KT P6SM BKN015
     FM031700 14007KT P6SM BKN035
     FM040000 13005KT P6SM SCT035 BKN250
     FM040600 17004KT 4SM BR SCT004=



000
FTUS42 KJAX 031142
TAFCRG
TAF
KCRG 031142Z 0312/0412 00000KT 6SM BR BKN035
      TEMPO 0312/0315 1SM BR BKN003
     FM031500 12005KT P6SM BKN015
     FM031800 14007KT P6SM BKN035
     FM040000 13005KT P6SM SCT035 BKN250
     FM040600 17004KT 4SM BR SCT004=



000
FTUS42 KJAX 030935 AAA
TAFSSI
TAF AMD
KSSI 030935Z 0310/0406 22003KT 5SM BR SCT003
     FM031500 08007KT P6SM BKN010
     FM031800 12006KT P6SM BKN025=



000
FTUS42 KJAX 030935 AAA
TAFSSI
TAF AMD
KSSI 030935Z 0310/0406 22003KT 5SM BR SCT003
     FM031500 08007KT P6SM BKN010
     FM031800 12006KT P6SM BKN025=



000
FTUS42 KJAX 030932 AAA
TAFCRG
TAF AMD
KCRG 030932Z 0310/0406 00000KT 5SM BR SCT003
      TEMPO 0311/0315 1SM BR BKN003
     FM031500 12005KT P6SM BKN010
     FM031800 14007KT P6SM BKN035=



000
FTUS42 KJAX 030932 AAA
TAFCRG
TAF AMD
KCRG 030932Z 0310/0406 00000KT 5SM BR SCT003
      TEMPO 0311/0315 1SM BR BKN003
     FM031500 12005KT P6SM BKN010
     FM031800 14007KT P6SM BKN035=



000
FTUS42 KJAX 030931 AAA
TAFJAX
TAF AMD
KJAX 030931Z 0310/0406 00000KT 5SM BR SCT003
      TEMPO 0311/0315 1SM BR BKN003
     FM031500 12005KT P6SM BKN010
     FM031700 14007KT P6SM BKN035=



000
FTUS42 KJAX 030931 AAA
TAFJAX
TAF AMD
KJAX 030931Z 0310/0406 00000KT 5SM BR SCT003
      TEMPO 0311/0315 1SM BR BKN003
     FM031500 12005KT P6SM BKN010
     FM031700 14007KT P6SM BKN035=



000
FTUS42 KJAX 030521
TAFCRG
TAF
KCRG 030521Z 0306/0406 00000KT P6SM SCT030
     FM030800 00000KT 2SM BR BKN004
     FM031000 00000KT 1/2SM FG BKN001
     FM031400 00000KT 1SM BR OVC003
     FM031500 12005KT P6SM BKN010
     FM031800 14007KT P6SM BKN035=



000
FTUS42 KJAX 030521
TAFGNV
TAF
KGNV 030521Z 0306/0406 04002KT P6SM SCT120
     FM030800 00000KT 2SM BR OVC003
     FM031000 00000KT 1/2SM FG OVC001
     FM031430 12007KT 5SM BR BKN015
     FM031530 14008KT P6SM SCT035=



000
FTUS42 KJAX 030521
TAFJAX
TAF
KJAX 030521Z 0306/0406 00000KT P6SM SCT035
     FM030800 00000KT 2SM BR BKN004
     FM031000 00000KT 1SM BR OVC003
     FM031430 12005KT P6SM BKN010
     FM031700 14007KT P6SM BKN035=



000
FTUS42 KJAX 030521
TAFSSI
TAF
KSSI 030521Z 0306/0406 25003KT 5SM BR SCT080
     FM030800 VRB02KT 2SM BR OVC004
     FM031530 08007KT P6SM BKN010
     FM031800 12006KT P6SM BKN025=



000
FTUS42 KJAX 030301 AAA
TAFGNV
TAF AMD
KGNV 030301Z 0303/0324 VRB03KT P6SM SCT035 BKN100
     FM030500 00000KT 4SM BR SCT003 BKN015
     FM030700 00000KT 2SM BR OVC003
     FM031000 00000KT 1/2SM FG OVC001
     FM031430 12007KT 5SM BR BKN015
     FM031530 14008KT P6SM SCT035=



000
FTUS42 KJAX 030300 AAB
TAFCRG
TAF AMD
KCRG 030300Z 0303/0324 VRB03KT P6SM SCT035 BKN100
     FM030400 VRB02KT 3SM BR SCT004 SCT035
     FM030600 00000KT 2SM BR BKN003
     FM030800 00000KT 1/2SM FG OVC002
     FM031400 00000KT 1SM BR OVC003
     FM031500 12005KT P6SM BKN010
     FM031800 14007KT P6SM BKN035=



000
FTUS42 KJAX 030300 AAB
TAFJAX
TAF AMD
KJAX 030300Z 0303/0324 VRB04KT P6SM SCT100 BKN250
     FM030500 VRB02KT 3SM BR SCT004 SCT035
     FM030700 00000KT 2SM BR BKN003
     FM031000 00000KT 1SM BR OVC003
     FM031430 12005KT P6SM BKN010
     FM031700 14007KT P6SM BKN035=



000
FTUS42 KJAX 030300 AAB
TAFCRG
TAF AMD
KCRG 030300Z 0303/0324 VRB03KT P6SM SCT035 BKN100
     FM030400 VRB02KT 3SM BR SCT004 SCT035
     FM030600 00000KT 2SM BR BKN003
     FM030800 00000KT 1/2SM FG OVC002
     FM031400 00000KT 1SM BR OVC003
     FM031500 12005KT P6SM BKN010
     FM031800 14007KT P6SM BKN035=



000
FTUS42 KJAX 030209 AAA
TAFCRG
TAF AMD
KCRG 030209Z 0302/0324 VRB03KT P6SM SCT035 BKN100
     FM030300 VRB02KT 3SM BR SCT004 SCT035
     FM030500 00000KT 2SM BR BKN003
     FM030800 00000KT 1/2SM FG OVC002
     FM031400 00000KT 1SM BR OVC003
     FM031500 12005KT P6SM BKN010
     FM031800 14007KT P6SM BKN035=



000
FTUS42 KJAX 030209 AAA
TAFCRG
TAF AMD
KCRG 030209Z 0302/0324 VRB03KT P6SM SCT035 BKN100
     FM030300 VRB02KT 3SM BR SCT004 SCT035
     FM030500 00000KT 2SM BR BKN003
     FM030800 00000KT 1/2SM FG OVC002
     FM031400 00000KT 1SM BR OVC003
     FM031500 12005KT P6SM BKN010
     FM031800 14007KT P6SM BKN035=



000
FTUS42 KJAX 022321
TAFCRG
TAF
KCRG 022321Z 0300/0324 05003KT P6SM FEW005 SCT040
     FM030200 VRB02KT 3SM BR SCT004 SCT035
     FM030500 00000KT 2SM BR BKN003
     FM030800 00000KT 1/2SM FG OVC002
     FM031400 00000KT 1SM BR OVC003
     FM031500 12005KT P6SM BKN010
     FM031800 14007KT P6SM BKN035=



000
FTUS42 KJAX 022321
TAFGNV
TAF
KGNV 022321Z 0300/0324 VRB03KT P6SM VCSH BKN035
     FM030400 00000KT 4SM BR SCT003 BKN015
     FM030600 00000KT 2SM BR OVC003
     FM031000 00000KT 1/2SM FG OVC001
     FM031430 12007KT 5SM BR BKN015
     FM031530 14008KT P6SM SCT035=



000
FTUS42 KJAX 022321
TAFSSI
TAF
KSSI 022321Z 0300/0324 VRB03KT P6SM SCT025
     FM030400 VRB02KT 6SM BR SCT002 BKN015
     FM030530 VRB02KT 3SM BR BKN005
     FM030700 VRB02KT 2SM BR OVC004
     FM031530 08007KT P6SM BKN010
     FM031800 12006KT P6SM BKN025=



000
FTUS42 KJAX 022321
TAFJAX
TAF
KJAX 022321Z 0300/0324 08005KT P6SM SCT040
     FM030300 VRB02KT 3SM BR SCT004 SCT035
     FM030700 00000KT 2SM BR BKN003
     FM031000 00000KT 1SM BR OVC003
     FM031430 12005KT P6SM BKN010
     FM031700 14007KT P6SM BKN035=



000
FTUS42 KJAX 022209 AAC
TAFCRG
TAF AMD
KCRG 022209Z 0222/0318 07007KT P6SM FEW005 SCT035
     FM030030 05004KT 3SM BR BKN004
     FM030500 00000KT 1SM BR OVC002
      TEMPO 0309/0313 1/4SM FG
     FM031500 12007KT P6SM BKN015=



000
FTUS42 KJAX 022148 AAC
TAFSSI
TAF AMD
KSSI 022148Z 0222/0318 VRB03KT P6SM BKN025
     FM030100 VRB03KT 3SM BR BKN004
     FM030400 00000KT 1SM BR OVC002
      TEMPO 0309/0313 1/4SM FG
     FM031500 12007KT P6SM BKN010=



000
FTUS42 KJAX 022148 AAC
TAFSSI
TAF AMD
KSSI 022148Z 0222/0318 VRB03KT P6SM BKN025
     FM030100 VRB03KT 3SM BR BKN004
     FM030400 00000KT 1SM BR OVC002
      TEMPO 0309/0313 1/4SM FG
     FM031500 12007KT P6SM BKN010=



000
FTUS42 KJAX 022113 AAB
TAFCRG
TAF AMD
KCRG 022113Z 0221/0318 07007KT P6SM FEW005 SCT035
      TEMPO 0222/0224 5SM BR BKN005
     FM030000 05004KT 3SM BR BKN004
     FM030500 00000KT 1SM BR OVC002
      TEMPO 0309/0313 1/4SM FG
     FM031500 12007KT P6SM BKN015=



000
FTUS42 KJAX 022113 AAB
TAFCRG
TAF AMD
KCRG 022113Z 0221/0318 07007KT P6SM FEW005 SCT035
      TEMPO 0222/0224 5SM BR BKN005
     FM030000 05004KT 3SM BR BKN004
     FM030500 00000KT 1SM BR OVC002
      TEMPO 0309/0313 1/4SM FG
     FM031500 12007KT P6SM BKN015=



000
FTUS42 KJAX 022030 AAA
TAFGNV
TAF AMD
KGNV 022030Z 0221/0318 VRB04KT P6SM VCSH BKN035
     FM030000 VRB03KT 6SM BR FEW004 SCT035
     FM030200 VRB03KT 3SM BR BKN004
     FM030600 00000KT 1SM BR OVC002
      TEMPO 0309/0313 1/2SM FG
     FM031500 12007KT P6SM BKN015=



000
FTUS42 KJAX 022006 AAA
TAFCRG
TAF AMD
KCRG 022006Z 0220/0318 05007KT P6SM SCT035
      TEMPO 0220/0222 5SM BR BKN005
     FM022200 05004KT 3SM BR BKN004
     FM030500 00000KT 1SM BR OVC002
      TEMPO 0309/0313 1/4SM FG
     FM031500 12007KT P6SM BKN015=



000
FTUS42 KJAX 021842 AAB
TAFSSI
TAF AMD
KSSI 021842Z 0219/0318 VRB03KT P6SM SCT008 BKN040
     FM030000 VRB03KT 3SM BR BKN004
     FM030400 00000KT 1SM BR OVC002
      TEMPO 0309/0313 1/4SM FG
     FM031500 12007KT P6SM BKN010=



000
FTUS42 KJAX 021842 AAB
TAFSSI
TAF AMD
KSSI 021842Z 0219/0318 VRB03KT P6SM SCT008 BKN040
     FM030000 VRB03KT 3SM BR BKN004
     FM030400 00000KT 1SM BR OVC002
      TEMPO 0309/0313 1/4SM FG
     FM031500 12007KT P6SM BKN010=



000
FTUS42 KJAX 021820 AAA
TAFSSI
TAF AMD
KSSI 021820Z 0218/0318 VRB03KT P6SM OVC006
     FM030000 VRB03KT 3SM BR OVC004
     FM030400 00000KT 1SM BR OVC002
      TEMPO 0309/0313 1/4SM FG
     FM031500 12007KT P6SM BKN010=



000
FTUS42 KJAX 021820 AAA
TAFSSI
TAF AMD
KSSI 021820Z 0218/0318 VRB03KT P6SM OVC006
     FM030000 VRB03KT 3SM BR OVC004
     FM030400 00000KT 1SM BR OVC002
      TEMPO 0309/0313 1/4SM FG
     FM031500 12007KT P6SM BKN010=



000
FTUS42 KJAX 021720
TAFSSI
TAF
KSSI 021720Z 0218/0318 VRB03KT 5SM BR OVC006
     FM030000 VRB03KT 3SM BR OVC004
     FM030400 00000KT 1SM BR OVC002
      TEMPO 0309/0313 1/4SM FG
     FM031500 12007KT P6SM BKN010=



000
FTUS42 KJAX 021720
TAFGNV
TAF
KGNV 021720Z 0218/0318 VRB03KT P6SM SCT100
     FM022000 05005KT P6SM BKN035
     FM030200 VRB03KT 3SM BR BKN004
     FM030600 00000KT 1SM BR OVC002
      TEMPO 0309/0313 1/2SM FG
     FM031500 12007KT P6SM BKN015=



000
FTUS42 KJAX 021720
TAFJAX
TAF
KJAX 021720Z 0218/0318 VRB03KT P6SM BKN100
     FM022000 05005KT P6SM BKN035
     FM030200 VRB03KT 3SM BR BKN004
     FM030600 00000KT 1SM BR OVC002
      TEMPO 0309/0313 1/2SM FG
     FM031500 12007KT P6SM BKN015=



000
FTUS42 KJAX 021720
TAFCRG
TAF
KCRG 021720Z 0218/0318 VRB03KT P6SM BKN100
     FM022000 05005KT P6SM BKN035
     FM030100 VRB03KT 3SM BR BKN004
     FM030500 00000KT 1SM BR OVC002
      TEMPO 0309/0313 1/4SM FG
     FM031500 12007KT P6SM BKN015=



000
FTUS42 KJAX 021644 AAE
TAFCRG
TAF AMD
KCRG 021644Z 0217/0312 VRB03KT P6SM SCT008
     FM022100 04005KT P6SM BKN025
     FM030200 05002KT 3SM BR BKN004
     FM030600 00000KT 1SM BR OVC003=



000
FTUS42 KJAX 021628 AAE
TAFSSI
TAF AMD
KSSI 021628Z 0216/0312 VRB03KT P6SM OVC006
      TEMPO 0216/0217 3SM BR
     FM021800 08005KT P6SM OVC008
     FM022000 10006KT P6SM BKN015
     FM030300 12003KT 2SM BR BKN004=



000
FTUS42 KJAX 021627 AAB
TAFGNV
TAF AMD
KGNV 021627Z 0216/0312 VRB03KT P6SM BKN006
      TEMPO 0216/0217 3SM BR SCT006
     FM021700 05003KT P6SM SCT012
     FM022000 02003KT P6SM BKN035
     FM030600 00000KT 2SM BR OVC004=



000
FTUS42 KJAX 021559 AAD
TAFSSI
TAF AMD
KSSI 021559Z 0216/0312 VRB03KT 5SM BR OVC004
      TEMPO 0216/0217 1SM BR
     FM021700 VRB03KT 6SM BR OVC007
     FM021800 08005KT P6SM OVC010
     FM022000 10006KT P6SM BKN035
     FM030300 12003KT 2SM BR BKN004=



000
FTUS42 KJAX 021557 AAD
TAFJAX
TAF AMD
KJAX 021557Z 0216/0312 VRB03KT P6SM SCT008
     FM021800 04002KT P6SM BKN018
     FM022000 05004KT P6SM BKN035
     FM030400 05002KT 4SM BR BKN004=



000
FTUS42 KJAX 021557 AAD
TAFJAX
TAF AMD
KJAX 021557Z 0216/0312 VRB03KT P6SM SCT008
     FM021800 04002KT P6SM BKN018
     FM022000 05004KT P6SM BKN035
     FM030400 05002KT 4SM BR BKN004=



000
FTUS42 KJAX 021538 AAC
TAFSSI
TAF AMD
KSSI 021538Z 0216/0312 VRB03KT 2SM BR VV002
      TEMPO 0216/0217 1/2SM FG
     FM021700 VRB03KT 3SM BR OVC005
     FM021800 08005KT P6SM OVC010
     FM022000 10006KT P6SM BKN035
     FM030300 12003KT 2SM BR BKN004=



000
FTUS42 KJAX 021537 AAD
TAFJAX
TAF AMD
KJAX 021537Z 0216/0312 VRB03KT P6SM BKN006
      TEMPO 0216/0217 3SM BR SCT006
     FM021700 04002KT P6SM BKN018
     FM021900 05004KT P6SM BKN035
     FM030400 05002KT 4SM BR BKN004=



000
FTUS42 KJAX 021535 AAD
TAFCRG
TAF AMD
KCRG 021535Z 0216/0312 VRB03KT P6SM SCT006
      TEMPO 0216/0217 3SM BR BKN006
     FM021700 02004KT P6SM BKN018
     FM021900 04005KT P6SM BKN035
     FM030300 05002KT 4SM BR BKN004=



000
FTUS42 KJAX 021524 AAC
TAFCRG
TAF AMD
KCRG 021524Z 0215/0312 05002KT 3SM BR OVC004
      TEMPO 0215/0216 1SM BR BKN006
     FM021700 02004KT P6SM BKN018
     FM021900 04005KT P6SM BKN035
     FM030300 05002KT 4SM BR BKN004=



000
FTUS42 KJAX 021523 AAC
TAFJAX
TAF AMD
KJAX 021523Z 0215/0312 00000KT 2SM BR OVC004
      TEMPO 0215/0216 1SM BR BKN006
     FM021700 04002KT P6SM BKN018
     FM021900 05004KT P6SM BKN035
     FM030400 05002KT 4SM BR BKN004=



000
FTUS42 KJAX 021448 AAB
TAFSSI
TAF AMD
KSSI 021448Z 0215/0312 VRB03KT 1/2SM FG VV002
      TEMPO 0215/0216 1SM BR OVC004
     FM021600 VRB03KT 2SM BR OVC005
     FM021800 08005KT P6SM OVC010
     FM022000 10006KT P6SM BKN035
     FM030300 12003KT 2SM BR BKN004=



000
FTUS42 KJAX 021448 AAB
TAFSSI
TAF AMD
KSSI 021448Z 0215/0312 VRB03KT 1/2SM FG VV002
      TEMPO 0215/0216 1SM BR OVC004
     FM021600 VRB03KT 2SM BR OVC005
     FM021800 08005KT P6SM OVC010
     FM022000 10006KT P6SM BKN035
     FM030300 12003KT 2SM BR BKN004=



000
FTUS42 KJAX 021446 AAA
TAFGNV
TAF AMD
KGNV 021446Z 0215/0312 02003KT 2SM BR OVC003
      TEMPO 0215/0216 1SM BR OVC005
     FM021700 05003KT P6SM BKN015
     FM021900 02003KT P6SM BKN035
     FM030600 00000KT 2SM BR OVC004=



000
FTUS42 KJAX 021446 AAA
TAFGNV
TAF AMD
KGNV 021446Z 0215/0312 02003KT 2SM BR OVC003
      TEMPO 0215/0216 1SM BR OVC005
     FM021700 05003KT P6SM BKN015
     FM021900 02003KT P6SM BKN035
     FM030600 00000KT 2SM BR OVC004=



000
FTUS42 KJAX 021445 AAB
TAFCRG
TAF AMD
KCRG 021445Z 0215/0312 05002KT 2SM BR OVC003
      TEMPO 0215/0216 1/2SM FG OVC005
     FM021700 02004KT P6SM BKN018
     FM021900 04005KT P6SM BKN035
     FM030300 05002KT 4SM BR BKN004=



000
FTUS42 KJAX 021445 AAB
TAFCRG
TAF AMD
KCRG 021445Z 0215/0312 05002KT 2SM BR OVC003
      TEMPO 0215/0216 1/2SM FG OVC005
     FM021700 02004KT P6SM BKN018
     FM021900 04005KT P6SM BKN035
     FM030300 05002KT 4SM BR BKN004=



000
FTUS42 KJAX 021444 AAB
TAFJAX
TAF AMD
KJAX 021444Z 0215/0312 00000KT 1/4SM FG VV002
     FM021500 04002KT 1SM BR BKN004
      TEMPO 0215/0216 1/2SM FG OVC002
     FM021700 04002KT P6SM BKN018
     FM021900 05004KT P6SM BKN035
     FM030400 05002KT 4SM BR BKN004=



000
FTUS42 KJAX 021444 AAB
TAFJAX
TAF AMD
KJAX 021444Z 0215/0312 00000KT 1/4SM FG VV002
     FM021500 04002KT 1SM BR BKN004
      TEMPO 0215/0216 1/2SM FG OVC002
     FM021700 04002KT P6SM BKN018
     FM021900 05004KT P6SM BKN035
     FM030400 05002KT 4SM BR BKN004=



000
FTUS42 KJAX 021325 AAA
TAFSSI
TAF AMD
KSSI 021325Z 0213/0312 VRB03KT 1/2SM FG VV002
      TEMPO 0213/0215 1SM BR OVC004
     FM021500 VRB03KT 2SM BR OVC005
     FM021700 08005KT P6SM OVC010
     FM022000 10006KT P6SM BKN035
     FM030300 12003KT 2SM BR BKN004=



000
FTUS42 KJAX 021224 AAA
TAFCRG
TAF AMD
KCRG 021224Z 0212/0312 35003KT 1/4SM FG VV002
     FM021500 05002KT 2SM BR BKN005
     FM021700 02004KT P6SM BKN018
     FM021900 04005KT P6SM BKN035
     FM030300 05002KT 4SM BR BKN004=



000
FTUS42 KJAX 021133
TAFJAX
TAF
KJAX 021133Z 0212/0312 00000KT 1/4SM FG VV002
     FM021500 04002KT 2SM BR BKN004
     FM021700 04002KT P6SM BKN018
     FM021900 05004KT P6SM BKN035
     FM030400 05002KT 4SM BR BKN004=



000
FTUS42 KJAX 021133
TAFGNV
TAF
KGNV 021133Z 0212/0312 VRB03KT 1/4SM FG VV002
     FM021500 08003KT 2SM BR OVC004
     FM021700 05003KT P6SM BKN015
     FM021900 02003KT P6SM BKN035
     FM030600 00000KT 2SM BR OVC004=



000
FTUS42 KJAX 021133
TAFSSI
TAF
KSSI 021133Z 0212/0312 VRB03KT 1/4SM FG VV002
     FM021500 VRB03KT 2SM BR OVC004
     FM021700 08005KT P6SM OVC010
     FM022000 10006KT P6SM BKN035
     FM030300 12003KT 2SM BR BKN004=



000
FTUS42 KJAX 021133
TAFCRG
TAF
KCRG 021133Z 0212/0312 35003KT 1/2SM FG VV002
     FM021500 05002KT 2SM BR BKN005
     FM021700 02004KT P6SM BKN018
     FM021900 04005KT P6SM BKN035
     FM030300 05002KT 4SM BR BKN004=



000
FTUS42 KJAX 021133
TAFJAX
TAF
KJAX 021133Z 0212/0312 00000KT 1/4SM FG VV002
     FM021500 04002KT 2SM BR BKN004
     FM021700 04002KT P6SM BKN018
     FM021900 05004KT P6SM BKN035
     FM030400 05002KT 4SM BR BKN004=



000
FTUS42 KJAX 021133
TAFSSI
TAF
KSSI 021133Z 0212/0312 VRB03KT 1/4SM FG VV002
     FM021500 VRB03KT 2SM BR OVC004
     FM021700 08005KT P6SM OVC010
     FM022000 10006KT P6SM BKN035
     FM030300 12003KT 2SM BR BKN004=



000
FTUS42 KJAX 021133
TAFGNV
TAF
KGNV 021133Z 0212/0312 VRB03KT 1/4SM FG VV002
     FM021500 08003KT 2SM BR OVC004
     FM021700 05003KT P6SM BKN015
     FM021900 02003KT P6SM BKN035
     FM030600 00000KT 2SM BR OVC004=



000
FTUS42 KJAX 021133
TAFCRG
TAF
KCRG 021133Z 0212/0312 35003KT 1/2SM FG VV002
     FM021500 05002KT 2SM BR BKN005
     FM021700 02004KT P6SM BKN018
     FM021900 04005KT P6SM BKN035
     FM030300 05002KT 4SM BR BKN004=



000
FTUS42 KJAX 020841 AAB
TAFGNV
TAF AMD
KGNV 020841Z 0209/0306 03004KT 1/4SM FG VV002
     FM021330 08004KT 2SM BR OVC002
     FM021600 VRB03KT P6SM OVC008
     FM021900 09003KT P6SM BKN035=



000
FTUS42 KJAX 020841 AAB
TAFGNV
TAF AMD
KGNV 020841Z 0209/0306 03004KT 1/4SM FG VV002
     FM021330 08004KT 2SM BR OVC002
     FM021600 VRB03KT P6SM OVC008
     FM021900 09003KT P6SM BKN035=



000
FTUS42 KJAX 020641 AAA
TAFGNV
TAF AMD
KGNV 020641Z 0207/0306 03004KT 1/4SM FG VV001
     FM021330 08004KT 2SM BR OVC002
     FM021600 VRB03KT P6SM OVC008
     FM021900 09003KT P6SM BKN035=



000
FTUS42 KJAX 020641 AAA
TAFGNV
TAF AMD
KGNV 020641Z 0207/0306 03004KT 1/4SM FG VV001
     FM021330 08004KT 2SM BR OVC002
     FM021600 VRB03KT P6SM OVC008
     FM021900 09003KT P6SM BKN035=



000
FTUS42 KJAX 020638 AAA
TAFCRG
TAF AMD
KCRG 020638Z 0207/0306 35003KT 1/2SM -DZ FG VV002
     FM021400 05002KT 1SM BR OVC003
     FM021430 VRB02KT 3SM BR BKN005
     FM021600 02004KT P6SM BKN018
     FM021900 04005KT P6SM BKN035=



000
FTUS42 KJAX 020638 AAA
TAFCRG
TAF AMD
KCRG 020638Z 0207/0306 35003KT 1/2SM -DZ FG VV002
     FM021400 05002KT 1SM BR OVC003
     FM021430 VRB02KT 3SM BR BKN005
     FM021600 02004KT P6SM BKN018
     FM021900 04005KT P6SM BKN035=



000
FTUS42 KJAX 020523
TAFCRG
TAF
KCRG 020523Z 0206/0306 01003KT 1/2SM -DZ FG OVC001
     FM021400 05002KT 1SM BR OVC003
     FM021430 VRB02KT 3SM BR BKN005
     FM021600 02004KT P6SM BKN018
     FM021900 04005KT P6SM BKN035=



000
FTUS42 KJAX 020523
TAFJAX
TAF
KJAX 020523Z 0206/0306 01003KT 1/4SM -DZ FG VV002
     FM021400 05002KT 2SM BR BKN005
     FM021600 VRB03KT P6SM BKN018
     FM021800 04004KT P6SM BKN035=



000
FTUS42 KJAX 020523
TAFJAX
TAF
KJAX 020523Z 0206/0306 01003KT 1/4SM -DZ FG VV002
     FM021400 05002KT 2SM BR BKN005
     FM021600 VRB03KT P6SM BKN018
     FM021800 04004KT P6SM BKN035=



000
FTUS42 KJAX 020523
TAFSSI
TAF
KSSI 020523Z 0206/0306 01003KT 1/4SM FG VV002
     FM021500 VRB03KT 2SM BR OVC003
     FM021700 08005KT P6SM OVC010
     FM022000 10006KT P6SM BKN035=



000
FTUS42 KJAX 020523
TAFGNV
TAF
KGNV 020523Z 0206/0306 03004KT 3SM BR OVC003
     FM020800 03002KT 1/4SM FG VV001
     FM021330 08004KT 2SM BR OVC002
     FM021600 VRB03KT P6SM OVC008
     FM021900 09003KT P6SM BKN035=



000
FTUS42 KJAX 020421 AAC
TAFJAX
TAF AMD
KJAX 020421Z 0204/0224 01003KT 1/4SM -DZ FG VV002
     FM021300 05002KT 2SM BR BKN005
     FM021500 VRB03KT P6SM BKN018
     FM021800 VRB03KT P6SM BKN035=



000
FTUS42 KJAX 020421 AAC
TAFJAX
TAF AMD
KJAX 020421Z 0204/0224 01003KT 1/4SM -DZ FG VV002
     FM021300 05002KT 2SM BR BKN005
     FM021500 VRB03KT P6SM BKN018
     FM021800 VRB03KT P6SM BKN035=



000
FTUS42 KJAX 020307 AAB
TAFCRG
TAF AMD
KCRG 020307Z 0203/0224 02003KT 1SM -DZ BR OVC002
     FM020600 01003KT 1/2SM -DZ FG OVC001
     FM021300 05002KT 1SM BR OVC003
     FM021430 VRB02KT 3SM BR BKN005
     FM021600 VRB03KT P6SM BKN018
     FM021900 VRB03KT P6SM BKN035=



000
FTUS42 KJAX 020307 AAB
TAFCRG
TAF AMD
KCRG 020307Z 0203/0224 02003KT 1SM -DZ BR OVC002
     FM020600 01003KT 1/2SM -DZ FG OVC001
     FM021300 05002KT 1SM BR OVC003
     FM021430 VRB02KT 3SM BR BKN005
     FM021600 VRB03KT P6SM BKN018
     FM021900 VRB03KT P6SM BKN035=



000
FTUS42 KJAX 020306 AAB
TAFGNV
TAF AMD
KGNV 020306Z 0203/0224 05003KT 4SM BR OVC007
     FM020430 04002KT 2SM BR OVC003
     FM020600 03002KT 1/4SM FG OVC001
     FM021330 08004KT 2SM BR OVC002
     FM021600 VRB03KT P6SM OVC008
     FM021900 VRB02KT P6SM BKN035=



000
FTUS42 KJAX 020306 AAB
TAFGNV
TAF AMD
KGNV 020306Z 0203/0224 05003KT 4SM BR OVC007
     FM020430 04002KT 2SM BR OVC003
     FM020600 03002KT 1/4SM FG OVC001
     FM021330 08004KT 2SM BR OVC002
     FM021600 VRB03KT P6SM OVC008
     FM021900 VRB02KT P6SM BKN035=



000
FTUS42 KJAX 020301 AAA
TAFCRG
TAF AMD
KCRG 020301Z 0203/0224 03004KT 2SM -DZ BR OVC002
     FM020430 02003KT 1SM BR OVC002
     FM020600 01003KT 1/2SM FG OVC001
     FM021300 05002KT 1SM BR OVC003
     FM021430 VRB02KT 3SM BR BKN005
     FM021600 VRB03KT P6SM BKN018
     FM021900 VRB03KT P6SM BKN035=



000
FTUS42 KJAX 020301 AAA
TAFCRG
TAF AMD
KCRG 020301Z 0203/0224 03004KT 2SM -DZ BR OVC002
     FM020430 02003KT 1SM BR OVC002
     FM020600 01003KT 1/2SM FG OVC001
     FM021300 05002KT 1SM BR OVC003
     FM021430 VRB02KT 3SM BR BKN005
     FM021600 VRB03KT P6SM BKN018
     FM021900 VRB03KT P6SM BKN035=



000
FTUS42 KJAX 020254 AAB
TAFJAX
TAF AMD
KJAX 020254Z 0203/0224 02003KT 1SM -DZ BR OVC002
     FM020600 01003KT 1/2SM -DZ FG OVC001
     FM021300 05002KT 2SM BR BKN005
     FM021500 VRB03KT P6SM BKN018
     FM021800 VRB03KT P6SM BKN035=



000
FTUS42 KJAX 020207 AAA
TAFGNV
TAF AMD
KGNV 020207Z 0202/0224 07004KT P6SM SCT010 OVC040
     FM020330 05003KT 4SM BR OVC010
     FM020440 04002KT 2SM BR OVC003
     FM020600 03002KT 1/4SM FG OVC001
     FM021330 08004KT 2SM BR OVC002
     FM021600 VRB03KT P6SM OVC008
     FM021900 VRB02KT P6SM BKN035=



000
FTUS42 KJAX 020207 AAA
TAFGNV
TAF AMD
KGNV 020207Z 0202/0224 07004KT P6SM SCT010 OVC040
     FM020330 05003KT 4SM BR OVC010
     FM020440 04002KT 2SM BR OVC003
     FM020600 03002KT 1/4SM FG OVC001
     FM021330 08004KT 2SM BR OVC002
     FM021600 VRB03KT P6SM OVC008
     FM021900 VRB02KT P6SM BKN035=



000
FTUS42 KJAX 020205 AAA
TAFJAX
TAF AMD
KJAX 020205Z 0202/0224 03003KT 3SM BR OVC003
     FM020430 02003KT 1SM BR OVC002
     FM020600 01003KT 1/2SM FG OVC001
     FM021300 05002KT 2SM BR BKN005
     FM021500 VRB03KT P6SM BKN018
     FM021800 VRB03KT P6SM BKN035=



000
FTUS42 KJAX 020205 AAA
TAFJAX
TAF AMD
KJAX 020205Z 0202/0224 03003KT 3SM BR OVC003
     FM020430 02003KT 1SM BR OVC002
     FM020600 01003KT 1/2SM FG OVC001
     FM021300 05002KT 2SM BR BKN005
     FM021500 VRB03KT P6SM BKN018
     FM021800 VRB03KT P6SM BKN035=



000
FTUS42 KJAX 012322
TAFGNV
TAF
KGNV 012322Z 0200/0224 04004KT P6SM BKN018 OVC025
     FM020200 05003KT 4SM BR OVC007
     FM020400 04002KT 2SM BR OVC003
     FM020600 03002KT 1/4SM FG OVC001
     FM021330 08004KT 2SM BR OVC002
     FM021600 VRB03KT P6SM OVC008
     FM021900 VRB02KT P6SM BKN035=



000
FTUS42 KJAX 012322
TAFCRG
TAF
KCRG 012322Z 0200/0224 03005KT 3SM BR OVC004
     FM020200 03004KT 2SM BR OVC003
     FM020430 02003KT 1SM BR OVC002
     FM020600 01003KT 1/2SM FG OVC001
     FM021300 05002KT 1SM BR OVC003
     FM021430 VRB02KT 3SM BR BKN005
     FM021600 VRB03KT P6SM BKN018
     FM021900 VRB03KT P6SM BKN035=



000
FTUS42 KJAX 012322
TAFJAX
TAF
KJAX 012322Z 0200/0224 03004KT 6SM BR OVC006
     FM020300 02003KT 4SM BR OVC003
     FM020430 02003KT 1SM BR OVC002
     FM020600 01003KT 1/2SM FG OVC001
     FM021300 05002KT 2SM BR BKN005
     FM021500 VRB03KT P6SM BKN018
     FM021800 VRB03KT P6SM BKN035=



000
FTUS42 KJAX 012322
TAFSSI
TAF
KSSI 012322Z 0200/0224 03005KT 1SM BR OVC004
     FM020300 02004KT 1SM BR OVC001
     FM020430 01003KT 1/4SM FG OVC001
     FM021400 36003KT 2SM BR OVC003
     FM021700 08005KT P6SM OVC010
     FM022000 10006KT P6SM BKN035=



000
FTUS42 KJAX 012246 AAB
TAFSSI
TAF AMD
KSSI 012246Z 0123/0218 04005KT 3SM BR OVC004
     FM020300 02004KT 1SM BR OVC001
     FM020430 01003KT 1/4SM FG OVC001
     FM021400 36003KT 2SM BR OVC003
     FM021700 08005KT P6SM OVC010=



000
FTUS42 KJAX 012112 AAA
TAFSSI
TAF AMD
KSSI 012112Z 0121/0218 05006KT P6SM OVC007
     FM020000 04005KT 3SM BR OVC004
     FM020300 02004KT 1SM BR OVC001
     FM020430 01003KT 1/4SM FG OVC001
     FM021400 36003KT 2SM BR OVC003
     FM021700 08005KT P6SM OVC010=



000
FTUS42 KJAX 012112 AAA
TAFSSI
TAF AMD
KSSI 012112Z 0121/0218 05006KT P6SM OVC007
     FM020000 04005KT 3SM BR OVC004
     FM020300 02004KT 1SM BR OVC001
     FM020430 01003KT 1/4SM FG OVC001
     FM021400 36003KT 2SM BR OVC003
     FM021700 08005KT P6SM OVC010=



000
FTUS42 KJAX 012110 AAA
TAFCRG
TAF AMD
KCRG 012110Z 0121/0218 03005KT 6SM BR OVC005
     FM020300 02004KT 4SM BR OVC003
     FM020430 02003KT 1SM BR OVC002
     FM020600 01003KT 1/2SM FG OVC001
     FM021300 05002KT 1SM BR OVC003
     FM021430 VRB02KT 3SM BR BKN005
     FM021600 VRB03KT P6SM BKN018=



000
FTUS42 KJAX 012110 AAA
TAFCRG
TAF AMD
KCRG 012110Z 0121/0218 03005KT 6SM BR OVC005
     FM020300 02004KT 4SM BR OVC003
     FM020430 02003KT 1SM BR OVC002
     FM020600 01003KT 1/2SM FG OVC001
     FM021300 05002KT 1SM BR OVC003
     FM021430 VRB02KT 3SM BR BKN005
     FM021600 VRB03KT P6SM BKN018=



000
FTUS42 KJAX 012109 AAB
TAFJAX
TAF AMD
KJAX 012109Z 0121/0218 07005KT P6SM OVC010
     FM020000 03004KT 6SM BR OVC006
     FM020300 02003KT 4SM BR OVC003
     FM020430 02003KT 1SM BR OVC002
     FM020600 01003KT 1/2SM FG OVC001
     FM021300 05002KT 2SM BR BKN005
     FM021500 VRB03KT P6SM BKN018=



000
FTUS42 KJAX 012109 AAB
TAFJAX
TAF AMD
KJAX 012109Z 0121/0218 07005KT P6SM OVC010
     FM020000 03004KT 6SM BR OVC006
     FM020300 02003KT 4SM BR OVC003
     FM020430 02003KT 1SM BR OVC002
     FM020600 01003KT 1/2SM FG OVC001
     FM021300 05002KT 2SM BR BKN005
     FM021500 VRB03KT P6SM BKN018=



000
FTUS42 KJAX 012007 AAA
TAFGNV
TAF AMD
KGNV 012007Z 0120/0218 11007KT P6SM VCSH BKN025
     FM012300 07005KT P6SM SCT007 OVC018
     FM020200 05003KT 3SM BR OVC004
     FM020600 VRB03KT 1SM BR OVC002
      TEMPO 0209/0213 1/4SM FG OVC001
     FM021400 VRB03KT 5SM BR BKN010=



000
FTUS42 KJAX 011938 AAB
TAFJAX
TAF AMD
KJAX 011938Z 0120/0218 04007KT P6SM OVC010
      TEMPO 0120/0123 OVC006
     FM020100 03004KT 3SM BR OVC006
     FM020500 01003KT 1SM BR OVC002
      TEMPO 0209/0213 1/2SM FG OVC001
     FM021500 VRB03KT 5SM BR BKN010=



    US Dept of Commerce
    National Oceanic and Atmospheric Administration
    National Weather Service
    1325 East West Highway
    Silver Spring, MD 20910
    Page Author: NWS Internet Services Team
Disclaimer
Information Quality
Credits
Glossary
Privacy Policy
Freedom of Information Act (FOIA)
About Us
Career Opportunities